sensor_id;sensor_type;location;lat;lon;timestamp;P1;durP1;ratioP1;P2;durP2;ratioP2
23754;SDS011;12057;52.042;6.830;2022-12-16T00:02:57;115.13;;;37.45;;
23754;SDS011;12057;52.042;6.830;2022-12-16T00:07:59;116.70;;;34.83;;
23754;SDS011;12057;52.042;6.830;2022-12-16T00:13:00;107.85;;;35.50;;
23754;SDS011;12057;52.042;6.830;2022-12-16T00:18:01;110.18;;;37.67;;
23754;SDS011;12057;52.042;6.830;2022-12-16T00:23:01;134.60;;;37.63;;
23754;SDS011;12057;52.042;6.830;2022-12-16T00:28:02;121.28;;;39.13;;
23754;SDS011;12057;52.042;6.830;2022-12-16T00:33:03;126.93;;;37.42;;
23754;SDS011;12057;52.042;6.830;2022-12-16T00:38:04;117.35;;;38.35;;
23754;SDS011;12057;52.042;6.830;2022-12-16T00:43:05;125.82;;;37.50;;
23754;SDS011;12057;52.042;6.830;2022-12-16T00:48:06;113.32;;;35.70;;
23754;SDS011;12057;52.042;6.830;2022-12-16T00:53:07;126.90;;;38.47;;
23754;SDS011;12057;52.042;6.830;2022-12-16T00:58:08;121.05;;;39.28;;
23754;SDS011;12057;52.042;6.830;2022-12-16T01:03:09;124.38;;;38.72;;
23754;SDS011;12057;52.042;6.830;2022-12-16T01:08:10;117.05;;;38.72;;
23754;SDS011;12057;52.042;6.830;2022-12-16T01:13:11;126.18;;;39.05;;
23754;SDS011;12057;52.042;6.830;2022-12-16T01:18:11;133.48;;;40.83;;
23754;SDS011;12057;52.042;6.830;2022-12-16T01:23:13;129.05;;;37.88;;
23754;SDS011;12057;52.042;6.830;2022-12-16T01:28:14;120.22;;;38.15;;
23754;SDS011;12057;52.042;6.830;2022-12-16T01:33:15;128.73;;;40.30;;
23754;SDS011;12057;52.042;6.830;2022-12-16T01:38:16;132.07;;;40.70;;
23754;SDS011;12057;52.042;6.830;2022-12-16T01:48:21;114.32;;;37.25;;
23754;SDS011;12057;52.042;6.830;2022-12-16T01:53:30;135.43;;;40.72;;
23754;SDS011;12057;52.042;6.830;2022-12-16T01:58:32;117.20;;;39.35;;
23754;SDS011;12057;52.042;6.830;2022-12-16T02:03:37;118.10;;;39.67;;
23754;SDS011;12057;52.042;6.830;2022-12-16T02:08:38;118.80;;;38.33;;
23754;SDS011;12057;52.042;6.830;2022-12-16T02:24:18;129.82;;;38.33;;
23754;SDS011;12057;52.042;6.830;2022-12-16T02:40:02;112.53;;;39.05;;
23754;SDS011;12057;52.042;6.830;2022-12-16T02:45:26;133.43;;;38.97;;
23754;SDS011;12057;52.042;6.830;2022-12-16T02:50:39;136.10;;;39.03;;
23754;SDS011;12057;52.042;6.830;2022-12-16T03:00:55;129.48;;;38.03;;
23754;SDS011;12057;52.042;6.830;2022-12-16T03:06:06;122.88;;;40.40;;
23754;SDS011;12057;52.042;6.830;2022-12-16T03:11:10;111.78;;;39.88;;
23754;SDS011;12057;52.042;6.830;2022-12-16T03:16:12;126.15;;;38.35;;
23754;SDS011;12057;52.042;6.830;2022-12-16T03:21:15;113.80;;;37.67;;
23754;SDS011;12057;52.042;6.830;2022-12-16T03:26:20;130.10;;;38.63;;
23754;SDS011;12057;52.042;6.830;2022-12-16T03:36:38;111.38;;;37.15;;
23754;SDS011;12057;52.042;6.830;2022-12-16T03:41:41;115.45;;;38.33;;
23754;SDS011;12057;52.042;6.830;2022-12-16T03:46:43;121.35;;;37.90;;
23754;SDS011;12057;52.042;6.830;2022-12-16T03:56:44;114.63;;;37.93;;
23754;SDS011;12057;52.042;6.830;2022-12-16T04:01:46;126.93;;;38.78;;
23754;SDS011;12057;52.042;6.830;2022-12-16T04:12:08;84.53;;;29.27;;
23754;SDS011;12057;52.042;6.830;2022-12-16T04:17:27;118.82;;;38.10;;
23754;SDS011;12057;52.042;6.830;2022-12-16T04:23:07;127.40;;;40.22;;
23754;SDS011;12057;52.042;6.830;2022-12-16T04:28:28;126.55;;;39.92;;
23754;SDS011;12057;52.042;6.830;2022-12-16T04:38:48;118.60;;;38.08;;
23754;SDS011;12057;52.042;6.830;2022-12-16T04:44:07;124.85;;;39.33;;
23754;SDS011;12057;52.042;6.830;2022-12-16T04:49:26;122.30;;;38.97;;
23754;SDS011;12057;52.042;6.830;2022-12-16T04:54:46;132.00;;;42.55;;
23754;SDS011;12057;52.042;6.830;2022-12-16T05:00:05;125.32;;;38.92;;
23754;SDS011;12057;52.042;6.830;2022-12-16T05:05:25;112.25;;;36.35;;
23754;SDS011;12057;52.042;6.830;2022-12-16T05:10:44;129.20;;;38.42;;
23754;SDS011;12057;52.042;6.830;2022-12-16T05:16:03;136.60;;;38.63;;
23754;SDS011;12057;52.042;6.830;2022-12-16T05:21:23;117.80;;;38.67;;
23754;SDS011;12057;52.042;6.830;2022-12-16T05:26:56;118.63;;;38.08;;
23754;SDS011;12057;52.042;6.830;2022-12-16T05:32:26;125.72;;;40.30;;
23754;SDS011;12057;52.042;6.830;2022-12-16T05:37:45;114.28;;;40.15;;
23754;SDS011;12057;52.042;6.830;2022-12-16T05:43:04;130.32;;;40.22;;
23754;SDS011;12057;52.042;6.830;2022-12-16T05:48:24;117.57;;;39.72;;
23754;SDS011;12057;52.042;6.830;2022-12-16T05:53:43;127.18;;;39.90;;
23754;SDS011;12057;52.042;6.830;2022-12-16T05:59:02;118.18;;;39.63;;
23754;SDS011;12057;52.042;6.830;2022-12-16T06:04:21;122.90;;;40.85;;
23754;SDS011;12057;52.042;6.830;2022-12-16T06:09:40;114.63;;;38.47;;
23754;SDS011;12057;52.042;6.830;2022-12-16T06:14:59;120.72;;;40.97;;
23754;SDS011;12057;52.042;6.830;2022-12-16T06:20:18;126.60;;;39.70;;
23754;SDS011;12057;52.042;6.830;2022-12-16T06:25:38;135.65;;;41.25;;
23754;SDS011;12057;52.042;6.830;2022-12-16T06:30:58;121.15;;;37.65;;
23754;SDS011;12057;52.042;6.830;2022-12-16T06:36:17;126.60;;;37.55;;
23754;SDS011;12057;52.042;6.830;2022-12-16T06:41:36;115.97;;;38.22;;
23754;SDS011;12057;52.042;6.830;2022-12-16T06:46:55;131.23;;;42.50;;
23754;SDS011;12057;52.042;6.830;2022-12-16T06:52:14;137.35;;;40.83;;
23754;SDS011;12057;52.042;6.830;2022-12-16T06:57:33;148.32;;;40.00;;
23754;SDS011;12057;52.042;6.830;2022-12-16T07:02:52;125.25;;;40.08;;
23754;SDS011;12057;52.042;6.830;2022-12-16T07:08:15;140.68;;;42.75;;
23754;SDS011;12057;52.042;6.830;2022-12-16T07:13:34;120.90;;;40.47;;
23754;SDS011;12057;52.042;6.830;2022-12-16T07:18:53;132.50;;;41.05;;
23754;SDS011;12057;52.042;6.830;2022-12-16T07:24:13;116.00;;;39.57;;
23754;SDS011;12057;52.042;6.830;2022-12-16T07:29:32;126.45;;;39.35;;
23754;SDS011;12057;52.042;6.830;2022-12-16T07:34:51;123.88;;;39.25;;
23754;SDS011;12057;52.042;6.830;2022-12-16T07:40:10;134.45;;;40.47;;
23754;SDS011;12057;52.042;6.830;2022-12-16T07:45:30;130.38;;;40.90;;
23754;SDS011;12057;52.042;6.830;2022-12-16T07:50:49;135.00;;;40.70;;
23754;SDS011;12057;52.042;6.830;2022-12-16T07:56:08;131.85;;;43.22;;
23754;SDS011;12057;52.042;6.830;2022-12-16T08:01:28;167.35;;;49.70;;
23754;SDS011;12057;52.042;6.830;2022-12-16T08:06:47;134.15;;;43.85;;
23754;SDS011;12057;52.042;6.830;2022-12-16T08:12:06;125.88;;;42.60;;
23754;SDS011;12057;52.042;6.830;2022-12-16T08:17:26;140.32;;;41.13;;
23754;SDS011;12057;52.042;6.830;2022-12-16T08:22:45;136.90;;;42.28;;
23754;SDS011;12057;52.042;6.830;2022-12-16T08:28:04;146.05;;;43.92;;
23754;SDS011;12057;52.042;6.830;2022-12-16T08:33:23;138.02;;;43.65;;
23754;SDS011;12057;52.042;6.830;2022-12-16T08:38:43;122.40;;;42.33;;
23754;SDS011;12057;52.042;6.830;2022-12-16T08:44:02;136.45;;;43.70;;
23754;SDS011;12057;52.042;6.830;2022-12-16T08:49:21;139.48;;;44.10;;
23754;SDS011;12057;52.042;6.830;2022-12-16T08:54:40;147.18;;;42.25;;
23754;SDS011;12057;52.042;6.830;2022-12-16T08:59:59;133.40;;;43.97;;
23754;SDS011;12057;52.042;6.830;2022-12-16T09:10:40;150.98;;;44.50;;
23754;SDS011;12057;52.042;6.830;2022-12-16T09:15:59;136.90;;;45.20;;
23754;SDS011;12057;52.042;6.830;2022-12-16T09:21:19;136.88;;;45.42;;
23754;SDS011;12057;52.042;6.830;2022-12-16T09:26:38;163.10;;;49.72;;
23754;SDS011;12057;52.042;6.830;2022-12-16T09:31:58;176.45;;;49.53;;
23754;SDS011;12057;52.042;6.830;2022-12-16T09:37:17;205.93;;;51.35;;
23754;SDS011;12057;52.042;6.830;2022-12-16T09:42:58;203.75;;;48.22;;
23754;SDS011;12057;52.042;6.830;2022-12-16T09:48:28;163.32;;;47.95;;
23754;SDS011;12057;52.042;6.830;2022-12-16T09:53:57;167.65;;;48.85;;
23754;SDS011;12057;52.042;6.830;2022-12-16T09:59:36;190.95;;;50.15;;
23754;SDS011;12057;52.042;6.830;2022-12-16T10:04:58;202.73;;;53.35;;
23754;SDS011;12057;52.042;6.830;2022-12-16T10:21:38;204.95;;;51.60;;
23754;SDS011;12057;52.042;6.830;2022-12-16T10:27:15;203.52;;;53.65;;
23754;SDS011;12057;52.042;6.830;2022-12-16T10:32:39;184.90;;;53.05;;
23754;SDS011;12057;52.042;6.830;2022-12-16T10:38:01;188.68;;;53.47;;
23754;SDS011;12057;52.042;6.830;2022-12-16T10:43:33;188.20;;;48.35;;
23754;SDS011;12057;52.042;6.830;2022-12-16T10:49:01;172.07;;;50.63;;
23754;SDS011;12057;52.042;6.830;2022-12-16T10:59:48;145.40;;;45.80;;
23754;SDS011;12057;52.042;6.830;2022-12-16T11:10:51;166.80;;;50.25;;
23754;SDS011;12057;52.042;6.830;2022-12-16T11:16:29;143.27;;;49.35;;
23754;SDS011;12057;52.042;6.830;2022-12-16T11:21:48;163.73;;;48.60;;
23754;SDS011;12057;52.042;6.830;2022-12-16T11:27:41;140.18;;;48.88;;
23754;SDS011;12057;52.042;6.830;2022-12-16T11:32:54;132.82;;;46.80;;
23754;SDS011;12057;52.042;6.830;2022-12-16T11:38:23;154.73;;;49.72;;
23754;SDS011;12057;52.042;6.830;2022-12-16T11:43:53;141.27;;;48.00;;
23754;SDS011;12057;52.042;6.830;2022-12-16T11:49:17;146.73;;;48.47;;
23754;SDS011;12057;52.042;6.830;2022-12-16T11:55:06;154.98;;;48.60;;
23754;SDS011;12057;52.042;6.830;2022-12-16T12:00:35;143.98;;;49.15;;
23754;SDS011;12057;52.042;6.830;2022-12-16T12:11:27;139.25;;;45.35;;
23754;SDS011;12057;52.042;6.830;2022-12-16T12:22:10;135.65;;;48.75;;
23754;SDS011;12057;52.042;6.830;2022-12-16T12:33:39;140.70;;;46.80;;
23754;SDS011;12057;52.042;6.830;2022-12-16T12:44:48;151.77;;;48.70;;
23754;SDS011;12057;52.042;6.830;2022-12-16T13:02:09;159.27;;;49.83;;
23754;SDS011;12057;52.042;6.830;2022-12-16T13:07:38;142.52;;;50.15;;
23754;SDS011;12057;52.042;6.830;2022-12-16T13:18:35;156.50;;;48.60;;
23754;SDS011;12057;52.042;6.830;2022-12-16T13:23:54;143.82;;;50.15;;
23754;SDS011;12057;52.042;6.830;2022-12-16T13:29:24;148.65;;;49.20;;
23754;SDS011;12057;52.042;6.830;2022-12-16T13:34:46;147.95;;;51.35;;
23754;SDS011;12057;52.042;6.830;2022-12-16T13:40:21;147.07;;;51.95;;
23754;SDS011;12057;52.042;6.830;2022-12-16T13:45:42;153.02;;;50.17;;
23754;SDS011;12057;52.042;6.830;2022-12-16T13:51:55;148.77;;;51.20;;
23754;SDS011;12057;52.042;6.830;2022-12-16T13:57:18;155.80;;;50.33;;
23754;SDS011;12057;52.042;6.830;2022-12-16T14:02:43;170.25;;;51.85;;
23754;SDS011;12057;52.042;6.830;2022-12-16T14:08:05;159.00;;;51.88;;
23754;SDS011;12057;52.042;6.830;2022-12-16T14:24:36;154.38;;;51.63;;
23754;SDS011;12057;52.042;6.830;2022-12-16T14:29:56;173.82;;;58.50;;
23754;SDS011;12057;52.042;6.830;2022-12-16T14:35:30;153.52;;;53.22;;
23754;SDS011;12057;52.042;6.830;2022-12-16T14:40:50;167.95;;;52.60;;
23754;SDS011;12057;52.042;6.830;2022-12-16T14:46:24;170.95;;;54.83;;
23754;SDS011;12057;52.042;6.830;2022-12-16T14:51:46;165.10;;;53.72;;
23754;SDS011;12057;52.042;6.830;2022-12-16T14:57:10;173.75;;;53.13;;
23754;SDS011;12057;52.042;6.830;2022-12-16T15:02:33;165.45;;;54.80;;
23754;SDS011;12057;52.042;6.830;2022-12-16T15:08:01;190.50;;;58.90;;
23754;SDS011;12057;52.042;6.830;2022-12-16T15:13:20;161.95;;;55.05;;
23754;SDS011;12057;52.042;6.830;2022-12-16T15:18:43;166.05;;;54.38;;
23754;SDS011;12057;52.042;6.830;2022-12-16T15:24:15;191.20;;;59.67;;
23754;SDS011;12057;52.042;6.830;2022-12-16T15:29:40;162.32;;;52.22;;
23754;SDS011;12057;52.042;6.830;2022-12-16T15:35:00;158.75;;;53.00;;
23754;SDS011;12057;52.042;6.830;2022-12-16T15:45:49;161.43;;;54.28;;
23754;SDS011;12057;52.042;6.830;2022-12-16T15:51:31;162.50;;;52.33;;
23754;SDS011;12057;52.042;6.830;2022-12-16T15:56:59;163.88;;;51.72;;
23754;SDS011;12057;52.042;6.830;2022-12-16T16:02:23;155.93;;;52.45;;
23754;SDS011;12057;52.042;6.830;2022-12-16T16:07:47;162.70;;;50.03;;
23754;SDS011;12057;52.042;6.830;2022-12-16T16:13:06;181.07;;;55.53;;
23754;SDS011;12057;52.042;6.830;2022-12-16T16:18:26;170.57;;;53.47;;
23754;SDS011;12057;52.042;6.830;2022-12-16T16:23:45;171.60;;;52.67;;
23754;SDS011;12057;52.042;6.830;2022-12-16T16:29:05;164.25;;;51.08;;
23754;SDS011;12057;52.042;6.830;2022-12-16T16:34:25;204.80;;;58.38;;
23754;SDS011;12057;52.042;6.830;2022-12-16T16:39:44;186.68;;;56.03;;
23754;SDS011;12057;52.042;6.830;2022-12-16T16:45:06;174.32;;;51.92;;
23754;SDS011;12057;52.042;6.830;2022-12-16T16:50:25;180.43;;;54.88;;
23754;SDS011;12057;52.042;6.830;2022-12-16T16:55:44;167.40;;;56.60;;
23754;SDS011;12057;52.042;6.830;2022-12-16T17:01:03;178.80;;;60.30;;
23754;SDS011;12057;52.042;6.830;2022-12-16T17:06:22;180.50;;;55.67;;
23754;SDS011;12057;52.042;6.830;2022-12-16T17:11:41;203.10;;;57.55;;
23754;SDS011;12057;52.042;6.830;2022-12-16T17:17:04;190.25;;;57.03;;
23754;SDS011;12057;52.042;6.830;2022-12-16T17:22:24;223.52;;;63.05;;
23754;SDS011;12057;52.042;6.830;2022-12-16T17:27:43;193.38;;;58.00;;
23754;SDS011;12057;52.042;6.830;2022-12-16T17:33:02;197.45;;;59.92;;
23754;SDS011;12057;52.042;6.830;2022-12-16T17:38:22;191.32;;;61.65;;
23754;SDS011;12057;52.042;6.830;2022-12-16T17:43:41;217.25;;;62.20;;
23754;SDS011;12057;52.042;6.830;2022-12-16T17:49:00;226.77;;;71.00;;
23754;SDS011;12057;52.042;6.830;2022-12-16T17:54:19;243.15;;;79.85;;
23754;SDS011;12057;52.042;6.830;2022-12-16T17:59:39;228.73;;;70.07;;
23754;SDS011;12057;52.042;6.830;2022-12-16T18:04:58;215.82;;;68.30;;
23754;SDS011;12057;52.042;6.830;2022-12-16T18:10:17;210.05;;;64.88;;
23754;SDS011;12057;52.042;6.830;2022-12-16T18:15:50;179.35;;;53.13;;
23754;SDS011;12057;52.042;6.830;2022-12-16T18:21:30;200.85;;;63.90;;
23754;SDS011;12057;52.042;6.830;2022-12-16T18:26:50;236.95;;;84.50;;
23754;SDS011;12057;52.042;6.830;2022-12-16T18:32:09;180.05;;;58.92;;
23754;SDS011;12057;52.042;6.830;2022-12-16T18:37:29;175.25;;;58.05;;
23754;SDS011;12057;52.042;6.830;2022-12-16T18:42:48;205.93;;;62.75;;
23754;SDS011;12057;52.042;6.830;2022-12-16T18:48:07;189.55;;;59.60;;
23754;SDS011;12057;52.042;6.830;2022-12-16T18:53:27;231.30;;;69.80;;
23754;SDS011;12057;52.042;6.830;2022-12-16T18:58:46;217.05;;;68.60;;
23754;SDS011;12057;52.042;6.830;2022-12-16T19:04:05;260.65;;;77.22;;
23754;SDS011;12057;52.042;6.830;2022-12-16T19:09:24;230.82;;;73.22;;
23754;SDS011;12057;52.042;6.830;2022-12-16T19:14:43;234.07;;;71.35;;
23754;SDS011;12057;52.042;6.830;2022-12-16T19:20:03;212.80;;;59.38;;
23754;SDS011;12057;52.042;6.830;2022-12-16T19:25:22;240.05;;;61.47;;
23754;SDS011;12057;52.042;6.830;2022-12-16T19:30:41;262.98;;;72.07;;
23754;SDS011;12057;52.042;6.830;2022-12-16T19:36:01;262.73;;;63.22;;
23754;SDS011;12057;52.042;6.830;2022-12-16T19:41:20;255.80;;;66.30;;
23754;SDS011;12057;52.042;6.830;2022-12-16T19:46:39;261.60;;;69.07;;
23754;SDS011;12057;52.042;6.830;2022-12-16T19:51:58;278.58;;;65.28;;
23754;SDS011;12057;52.042;6.830;2022-12-16T19:57:18;291.63;;;69.30;;
23754;SDS011;12057;52.042;6.830;2022-12-16T20:02:37;300.73;;;66.28;;
23754;SDS011;12057;52.042;6.830;2022-12-16T20:07:56;269.40;;;60.47;;
23754;SDS011;12057;52.042;6.830;2022-12-16T20:13:16;273.70;;;60.55;;
23754;SDS011;12057;52.042;6.830;2022-12-16T20:18:35;254.80;;;60.03;;
23754;SDS011;12057;52.042;6.830;2022-12-16T20:23:54;267.67;;;60.65;;
23754;SDS011;12057;52.042;6.830;2022-12-16T20:29:13;286.05;;;61.45;;
23754;SDS011;12057;52.042;6.830;2022-12-16T20:34:32;287.98;;;63.80;;
23754;SDS011;12057;52.042;6.830;2022-12-16T20:39:51;274.35;;;57.78;;
23754;SDS011;12057;52.042;6.830;2022-12-16T20:45:14;273.83;;;60.65;;
23754;SDS011;12057;52.042;6.830;2022-12-16T20:50:34;274.30;;;60.58;;
23754;SDS011;12057;52.042;6.830;2022-12-16T20:55:54;296.48;;;62.53;;
23754;SDS011;12057;52.042;6.830;2022-12-16T21:01:17;288.20;;;61.58;;
23754;SDS011;12057;52.042;6.830;2022-12-16T21:06:56;272.17;;;61.15;;
23754;SDS011;12057;52.042;6.830;2022-12-16T21:12:16;277.63;;;59.17;;
23754;SDS011;12057;52.042;6.830;2022-12-16T21:17:35;298.20;;;62.63;;
23754;SDS011;12057;52.042;6.830;2022-12-16T21:22:59;260.88;;;61.10;;
23754;SDS011;12057;52.042;6.830;2022-12-16T21:28:19;301.40;;;61.03;;
23754;SDS011;12057;52.042;6.830;2022-12-16T21:33:38;287.55;;;65.47;;
23754;SDS011;12057;52.042;6.830;2022-12-16T21:38:57;259.80;;;61.15;;
23754;SDS011;12057;52.042;6.830;2022-12-16T21:44:17;287.25;;;59.00;;
23754;SDS011;12057;52.042;6.830;2022-12-16T21:49:39;300.73;;;60.47;;
23754;SDS011;12057;52.042;6.830;2022-12-16T21:54:59;272.55;;;56.83;;
23754;SDS011;12057;52.042;6.830;2022-12-16T22:00:18;297.90;;;62.47;;
23754;SDS011;12057;52.042;6.830;2022-12-16T22:05:37;286.95;;;62.05;;
23754;SDS011;12057;52.042;6.830;2022-12-16T22:10:57;328.27;;;64.05;;
23754;SDS011;12057;52.042;6.830;2022-12-16T22:16:16;326.80;;;61.50;;
23754;SDS011;12057;52.042;6.830;2022-12-16T22:21:35;300.52;;;57.38;;
23754;SDS011;12057;52.042;6.830;2022-12-16T22:26:54;308.33;;;61.00;;
23754;SDS011;12057;52.042;6.830;2022-12-16T22:32:14;279.92;;;61.17;;
23754;SDS011;12057;52.042;6.830;2022-12-16T22:37:33;293.55;;;56.58;;
23754;SDS011;12057;52.042;6.830;2022-12-16T22:42:52;312.23;;;61.40;;
23754;SDS011;12057;52.042;6.830;2022-12-16T22:48:11;268.90;;;55.22;;
23754;SDS011;12057;52.042;6.830;2022-12-16T22:53:31;266.67;;;54.70;;
23754;SDS011;12057;52.042;6.830;2022-12-16T22:58:51;258.20;;;53.53;;
23754;SDS011;12057;52.042;6.830;2022-12-16T23:04:10;264.23;;;53.22;;
23754;SDS011;12057;52.042;6.830;2022-12-16T23:09:29;277.70;;;56.20;;
23754;SDS011;12057;52.042;6.830;2022-12-16T23:14:52;251.18;;;48.85;;
23754;SDS011;12057;52.042;6.830;2022-12-16T23:20:14;247.18;;;51.55;;
23754;SDS011;12057;52.042;6.830;2022-12-16T23:25:33;238.35;;;49.55;;
23754;SDS011;12057;52.042;6.830;2022-12-16T23:30:53;241.85;;;50.72;;
23754;SDS011;12057;52.042;6.830;2022-12-16T23:36:13;251.48;;;54.05;;
23754;SDS011;12057;52.042;6.830;2022-12-16T23:41:32;229.02;;;51.92;;
23754;SDS011;12057;52.042;6.830;2022-12-16T23:46:56;238.80;;;51.03;;
23754;SDS011;12057;52.042;6.830;2022-12-16T23:52:15;236.45;;;48.83;;
23754;SDS011;12057;52.042;6.830;2022-12-16T23:57:38;237.48;;;51.75;;
